createdAt,value
2019-04-01T00:04:16.469Z,100383.58
2019-04-01T00:09:20.701Z,100377.80
2019-04-01T00:14:25.489Z,100370.62
2019-04-01T00:19:29.817Z,100383.24
2019-04-01T00:24:33.884Z,100381.34
2019-04-01T00:29:38.020Z,100381.63
2019-04-01T00:34:42.205Z,100383.83
2019-04-01T00:39:46.414Z,100379.81
2019-04-01T00:44:50.689Z,100383.58
2019-04-01T00:49:54.974Z,100372.82
2019-04-01T00:55:00.468Z,100377.91
2019-04-01T01:00:05.345Z,100384.92
2019-04-01T01:05:09.716Z,100377.89
2019-04-01T01:15:24.878Z,100381.88
2019-04-01T01:20:29.113Z,100365.34
2019-04-01T01:25:33.241Z,100368.39
2019-04-01T01:30:37.509Z,100364.83
2019-04-01T01:35:41.744Z,100364.69
2019-04-01T01:40:46.043Z,100356.49
2019-04-01T01:45:50.264Z,100358.34
2019-04-01T01:50:54.499Z,100351.73
2019-04-01T01:55:59.715Z,100354.51
2019-04-01T02:01:04.185Z,100361.04
2019-04-01T02:06:08.565Z,100353.42
2019-04-01T02:11:12.839Z,100354.48
2019-04-01T02:16:17.084Z,100350.47
2019-04-01T02:21:21.739Z,100346.93
2019-04-01T02:26:26.085Z,100331.08
2019-04-01T02:31:30.291Z,100328.73
2019-04-01T02:36:34.629Z,100330.55
2019-04-01T02:41:39.106Z,100320.78
2019-04-01T02:46:43.383Z,100326.17
2019-04-01T02:51:47.719Z,100326.78
2019-04-01T02:56:52.949Z,100326.17
2019-04-01T03:01:57.205Z,100320.44
2019-04-01T03:07:01.512Z,100319.31
2019-04-01T03:12:05.813Z,100313.23
2019-04-01T03:17:10.115Z,100309.13
2019-04-01T03:22:14.325Z,100312.29
2019-04-01T03:27:18.661Z,100307.80
2019-04-01T03:32:22.841Z,100300.48
2019-04-01T03:37:27.164Z,100296.17
2019-04-01T03:42:31.370Z,100298.36
2019-04-01T03:47:35.705Z,100290.31
2019-04-01T03:52:39.921Z,100293.03
2019-04-01T03:57:44.828Z,100286.56
2019-04-01T04:02:49.258Z,100288.52
2019-04-01T04:07:53.646Z,100283.27
2019-04-01T04:12:57.869Z,100279.38
2019-04-01T04:18:01.992Z,100272.31
2019-04-01T04:23:06.219Z,100285.14
2019-04-01T04:28:10.452Z,100289.30
2019-04-01T04:33:14.813Z,100292.39
2019-04-01T04:38:19.013Z,100284.60
2019-04-01T04:43:23.397Z,100287.84
2019-04-01T04:48:27.577Z,100278.02
2019-04-01T04:53:31.909Z,100275.38
2019-04-01T04:58:36.243Z,100273.76
2019-04-01T05:03:40.468Z,100267.94
2019-04-01T05:08:44.798Z,100274.75
2019-04-01T05:13:51.379Z,100266.89
2019-04-01T05:18:55.619Z,100267.69
2019-04-01T05:24:00.624Z,100261.63
2019-04-01T05:29:04.906Z,100257.45
2019-04-01T05:34:10.430Z,100260.34
2019-04-01T05:39:15.137Z,100258.06
2019-04-01T05:44:19.394Z,100253.81
2019-04-01T05:49:23.844Z,100251.20
2019-04-01T05:54:28.104Z,100255.00
2019-04-01T05:59:32.465Z,100251.04
2019-04-01T06:04:36.866Z,100249.47
2019-04-01T06:09:41.140Z,100249.72
2019-04-01T06:14:46.105Z,100244.45
2019-04-01T06:19:51.386Z,100256.97
2019-04-01T06:24:55.827Z,100263.59
2019-04-01T06:30:00.378Z,100265.45
2019-04-01T06:35:05.585Z,100263.98
2019-04-01T06:40:10.859Z,100264.89
2019-04-01T06:45:15.266Z,100267.50
2019-04-01T06:50:19.565Z,100266.50
2019-04-01T06:55:24.386Z,100260.55
2019-04-01T07:00:28.817Z,100260.94
2019-04-01T07:05:33.045Z,100262.66
2019-04-01T07:10:37.367Z,100259.16
2019-04-01T07:15:41.632Z,100265.66
2019-04-01T07:20:47.777Z,100263.58
2019-04-01T07:25:52.445Z,100262.50
2019-04-01T07:30:56.825Z,100258.75
2019-04-01T07:36:04.265Z,100266.60
2019-04-01T07:41:08.705Z,100256.03
2019-04-01T07:46:12.926Z,100266.47
2019-04-01T07:51:17.378Z,100254.22
2019-04-01T07:56:21.861Z,100256.61
2019-04-01T08:01:26.300Z,100260.11
2019-04-01T08:06:30.570Z,100254.05
2019-04-01T08:11:35.126Z,100250.73
2019-04-01T08:16:39.446Z,100247.36
2019-04-01T08:21:43.885Z,100249.67
2019-04-01T08:26:48.025Z,100243.55
2019-04-01T08:31:52.467Z,100247.44
2019-04-01T08:36:56.667Z,100256.98
2019-04-01T08:42:01.158Z,100249.00
2019-04-01T08:47:05.464Z,100256.16
2019-04-01T08:52:11.149Z,100250.13
2019-04-01T08:57:15.747Z,100243.64
2019-04-01T09:02:22.127Z,100261.36
2019-04-01T09:07:26.514Z,100259.40
2019-04-01T09:12:30.811Z,100258.45
2019-04-01T09:17:35.290Z,100252.60
2019-04-01T09:22:39.951Z,100254.33
2019-04-01T09:27:44.059Z,100240.91
2019-04-01T09:32:48.273Z,100237.11
2019-04-01T09:37:52.540Z,100231.73
2019-04-01T09:42:56.679Z,100234.43
2019-04-01T09:48:01.023Z,100227.52
2019-04-01T09:53:05.360Z,100229.03
2019-04-01T09:58:09.729Z,100233.78
2019-04-01T10:03:14.033Z,100223.63
2019-04-01T10:08:18.293Z,100233.64
2019-04-01T10:19:07.879Z,100231.58
2019-04-01T10:24:12.199Z,100216.98
2019-04-01T10:29:16.740Z,100210.06
2019-04-01T10:34:21.780Z,100202.16
2019-04-01T10:39:26.120Z,100202.58
2019-04-01T10:44:32.979Z,100204.86
2019-04-01T10:49:38.629Z,100200.02
2019-04-01T10:54:43.016Z,100192.48
2019-04-01T10:59:47.399Z,100195.72
2019-04-01T11:04:51.742Z,100195.87
2019-04-01T11:09:57.479Z,100186.77
2019-04-01T11:15:02.083Z,100192.84
2019-04-01T11:20:08.046Z,100184.52
2019-04-01T11:25:13.105Z,100177.44
2019-04-01T11:30:17.612Z,100174.20
2019-04-01T11:35:22.179Z,100168.39
2019-04-01T11:40:29.466Z,100167.38
2019-04-01T11:45:33.945Z,100160.02
2019-04-01T11:50:38.371Z,100174.79
2019-04-01T11:55:42.738Z,100161.91
2019-04-01T12:00:47.208Z,100154.73
2019-04-01T12:05:52.387Z,100157.44
2019-04-01T12:10:56.982Z,100148.40
2019-04-01T12:16:01.240Z,100138.72
2019-04-01T12:21:05.406Z,100141.08
2019-04-01T12:26:15.380Z,100129.59
2019-04-01T12:31:15.838Z,100123.86
2019-04-01T12:36:20.200Z,100106.72
2019-04-01T12:41:24.501Z,100117.37
2019-04-01T12:46:28.892Z,100116.80
2019-04-01T12:51:33.169Z,100105.95
2019-04-01T12:56:37.759Z,100109.44
2019-04-01T13:01:42.027Z,100087.31
2019-04-01T13:06:47.178Z,100071.05
2019-04-01T13:11:51.299Z,100063.66
2019-04-01T13:16:57.206Z,100059.03
2019-04-01T13:22:01.610Z,100044.80
2019-04-01T13:27:09.195Z,100030.98
2019-04-01T13:32:12.450Z,100036.45
2019-04-01T13:37:18.273Z,100027.03
2019-04-01T13:42:24.898Z,100011.94
2019-04-01T13:47:28.642Z,100004.51
2019-04-01T13:52:33.091Z,99989.38
2019-04-01T13:57:38.291Z,99980.70
2019-04-01T14:02:42.725Z,99982.38
2019-04-01T14:07:47.805Z,99978.47
2019-04-01T14:12:51.871Z,99972.09
2019-04-01T14:17:58.226Z,99967.59
2019-04-01T14:23:02.447Z,99958.98
2019-04-01T14:28:06.886Z,99948.97
2019-04-01T14:33:11.012Z,99940.84
2019-04-01T14:38:15.257Z,99939.80
2019-04-01T14:43:19.481Z,99926.75
2019-04-01T14:48:23.921Z,99932.34
2019-04-01T14:53:28.076Z,99916.32
2019-04-01T14:58:32.372Z,99909.94
2019-04-01T15:03:36.886Z,99909.17
2019-04-01T15:08:41.301Z,99909.80
2019-04-01T15:13:45.727Z,99910.36
2019-04-01T15:18:50.066Z,99931.19
2019-04-01T15:23:54.242Z,99936.24
2019-04-01T15:28:58.463Z,99635.56
2019-04-01T15:34:02.701Z,99909.19
2019-04-01T15:39:07.163Z,99906.66
2019-04-01T15:44:11.371Z,99917.27
2019-04-01T15:49:15.749Z,99903.09
2019-04-01T15:54:19.985Z,99869.45
2019-04-01T15:59:25.341Z,99858.36
2019-04-01T16:04:29.657Z,99848.97
2019-04-01T16:09:33.951Z,99833.31
2019-04-01T16:14:38.176Z,99830.00
2019-04-01T16:19:42.607Z,99823.55
2019-04-01T16:24:49.203Z,99839.79
2019-04-01T16:29:53.523Z,99829.73
2019-04-01T16:34:57.729Z,99806.98
2019-04-01T16:40:05.590Z,99803.70
2019-04-01T16:45:08.362Z,99800.19
2019-04-01T16:50:12.596Z,99808.14
2019-04-01T16:55:18.408Z,99811.66
2019-04-01T17:00:23.008Z,99807.23
2019-04-01T17:05:31.914Z,99797.13
2019-04-01T17:10:37.593Z,99809.00
2019-04-01T17:15:41.676Z,99805.95
2019-04-01T17:20:45.875Z,99793.36
2019-04-01T17:25:50.086Z,99785.64
2019-04-01T17:30:54.418Z,99788.03
2019-04-01T17:35:58.656Z,99784.03
2019-04-01T17:41:03.091Z,99778.80
2019-04-01T17:46:08.226Z,99791.62
2019-04-01T17:51:13.362Z,99814.23
2019-04-01T17:56:18.473Z,99812.48
2019-04-01T18:01:22.776Z,99805.80
2019-04-01T18:06:30.046Z,99797.14
2019-04-01T18:11:34.257Z,99792.24
2019-04-01T18:16:38.498Z,99790.28
2019-04-01T18:21:43.906Z,99785.94
2019-04-01T18:26:48.039Z,99766.86
2019-04-01T18:31:52.435Z,99751.58
2019-04-01T18:36:56.562Z,99743.16
2019-04-01T18:42:00.827Z,99725.44
2019-04-01T18:47:05.197Z,99731.10
2019-04-01T18:52:09.609Z,99733.64
2019-04-01T18:57:13.718Z,99736.54
2019-04-01T19:02:17.797Z,99744.17
2019-04-01T19:07:22.188Z,99741.27
2019-04-01T19:12:27.301Z,99745.88
2019-04-01T19:17:31.468Z,99750.97
2019-04-01T19:22:35.599Z,99747.11
2019-04-01T19:27:39.786Z,99748.19
2019-04-01T19:32:43.969Z,99754.45
2019-04-01T19:37:48.228Z,99741.83
2019-04-01T19:42:52.406Z,99733.33
2019-04-01T19:47:57.425Z,99737.77
2019-04-01T19:53:02.869Z,99723.62
2019-04-01T19:58:07.250Z,99716.99
2019-04-01T20:03:12.811Z,99717.44
2019-04-01T20:08:16.963Z,99711.75
2019-04-01T20:13:21.401Z,99698.02
2019-04-01T20:18:25.614Z,99701.82
2019-04-01T20:23:29.901Z,99689.72
2019-04-01T20:28:34.063Z,99687.08
2019-04-01T20:33:38.401Z,99688.20
2019-04-01T20:38:42.723Z,99690.44
2019-04-01T20:43:49.869Z,99687.09
2019-04-01T20:48:52.783Z,99680.87
2019-04-01T20:53:57.041Z,99680.11
2019-04-01T20:59:01.391Z,99674.87
2019-04-01T21:04:05.545Z,99672.84
2019-04-01T21:09:10.001Z,99669.70
2019-04-01T21:14:15.104Z,99664.41
2019-04-01T21:19:19.341Z,99650.92
2019-04-01T21:24:23.523Z,99650.09
2019-04-01T21:29:27.825Z,99637.79
2019-04-01T21:34:31.964Z,99631.83
2019-04-01T21:39:37.876Z,99617.55
2019-04-01T21:44:42.201Z,99617.28
2019-04-01T21:49:46.504Z,99606.14
2019-04-01T21:54:50.664Z,99602.97
2019-04-01T21:59:54.903Z,99606.55
2019-04-01T22:04:59.043Z,99601.45
2019-04-01T22:10:03.765Z,99599.07
2019-04-01T22:15:08.086Z,99596.55
2019-04-01T22:20:12.264Z,99579.64
2019-04-01T22:25:16.433Z,99578.81
2019-04-01T22:30:20.894Z,99576.41
2019-04-01T22:35:25.050Z,99571.70
2019-04-01T22:40:30.517Z,99561.78
2019-04-01T22:45:35.050Z,99553.23
2019-04-01T22:50:39.510Z,99540.00
2019-04-01T22:55:43.679Z,99522.36
2019-04-01T23:00:47.921Z,99519.11
2019-04-01T23:05:55.685Z,99512.34
2019-04-01T23:11:00.005Z,99511.12
2019-04-01T23:16:04.519Z,99517.64
2019-04-01T23:21:09.776Z,99516.23
2019-04-01T23:26:13.890Z,99518.59
2019-04-01T23:31:18.202Z,99516.64
2019-04-01T23:36:22.681Z,99506.41
2019-04-01T23:41:26.674Z,99495.84
2019-04-01T23:46:30.760Z,99492.77
2019-04-01T23:51:35.264Z,99487.67
2019-04-01T23:56:40.214Z,99479.97
